Flight Track Log - Related Links

Times and Time Zones

All times are in EDT time to prevent confusion due to time zone crossing. See the DAL268 flight status page for this flight to view local times or setup timezone preferences in your user account.

Time Position Orientation Groundspeed Altitude Reporting Facility
EDT Latitude Longitude Course Direction KTS MPH feet Rate Location/Type
Sun 06:36:44 PM 33.6347 -84.4878 64° Northeast 451 519 2,700  Level Atlanta Center
Sun 06:37:11 PM 33.6167 -84.5167 233° Southwest 207 238 3,700 2,370 Climbing Atlanta TRACON
Sun 06:38:05 PM 33.5833 -84.5667 231° Southwest 251 289 5,900 2,526 Climbing Atlanta TRACON
Sun 06:39:05 PM 33.5167 -84.5833 192° South 260 299 8,500 2,500 Climbing Atlanta TRACON
Sun 06:40:05 PM 33.4500 -84.5500 157° South 291 335 10,900 1,850 Climbing Atlanta TRACON
Sun 06:41:05 PM 33.4667 -84.4333 80° East 355 409 12,200 1,212 Climbing Atlanta TRACON
Sun 06:41:44 PM 33.4578 -84.3725 100° East 392 451 12,900 1,818 Climbing Atlanta Center
Sun 06:42:00 PM 33.6740 -83.5746 64° Northeast  Level FlightAware Approximate
Sun 06:42:44 PM 33.4725 -84.2431 82° East 404 465 15,200  Level Atlanta Center
Sun 06:43:44 PM 33.5144 -84.1186 68° East 397 457 17,400 1,800 Climbing Atlanta Center
Sun 06:44:44 PM 33.5311 -83.9814 82° East 402 463 18,800 1,600 Climbing Atlanta Center
Sun 06:45:44 PM 33.5500 -83.8394 81° East 420 483 20,600 1,700 Climbing Atlanta Center
Sun 06:46:44 PM 33.5619 -83.6947 84° East 432 497 22,200 1,450 Climbing Atlanta Center
Sun 06:47:44 PM 33.5719 -83.5428 85° East 447 514 23,500 1,250 Climbing Atlanta Center
Sun 06:48:44 PM 33.6131 -83.4003 71° East 447 514 24,700 1,050 Climbing Atlanta Center
Sun 06:49:44 PM 33.6853 -83.2650 57° Northeast 458 527 25,600 950 Climbing Atlanta Center
Sun 06:50:44 PM 33.7553 -83.1269 59° Northeast 477 549 26,600 900 Climbing Atlanta Center
Sun 06:51:44 PM 33.8333 -82.9758 58° Northeast 477 549 27,400 1,000 Climbing Atlanta Center
Sun 06:52:44 PM 33.9031 -82.8375 59° Northeast 482 555 28,600 800 Climbing Atlanta Center
Sun 06:53:44 PM 33.9600 -82.6864 66° East 477 549 29,000 200 Climbing Atlanta Center
Sun 06:54:44 PM 34.0103 -82.5328 68° East 490 564 29,000 450 Level Atlanta Center
Sun 06:55:44 PM 34.0775 -82.3836 61° Northeast 490 564 29,900 1,050 Climbing Atlanta Center
Sun 06:56:44 PM 34.1256 -82.2422 68° East 495 570 31,100 1,000 Climbing Atlanta Center
Sun 06:57:44 PM 34.1711 -82.0881 70° East 495 570 31,900 800 Climbing Atlanta Center
Sun 06:58:44 PM 34.2103 -81.9289 73° East 495 570 32,700 550 Climbing Atlanta Center
Sun 06:59:44 PM 34.2514 -81.7769 72° East 484 557 33,000 150 Climbing Atlanta Center
Sun 07:00:44 PM 34.3133 -81.6344 62° Northeast 477 549 33,000  Level Atlanta Center
Sun 07:01:44 PM 34.3792 -81.4892 61° Northeast 472 543 33,000  Level Atlanta Center
Sun 07:02:44 PM 34.4428 -81.3386 63° Northeast 484 557 33,000  Level Atlanta Center
Sun 07:03:44 PM 34.5144 -81.1800 61° Northeast 484 557 33,000  Level Atlanta Center
Sun 07:04:44 PM 34.5778 -81.0342 62° Northeast 484 557 33,000  Level Atlanta Center
Sun 07:05:44 PM 34.6406 -80.8803 64° Northeast 494 568 33,000  Level Atlanta Center
Sun 07:06:44 PM 34.6978 -80.7494 62° Northeast 483 556 33,000  Level Atlanta Center
Sun 07:07:44 PM 34.7625 -80.6028 62° Northeast 489 563 33,000  Level Atlanta Center
Sun 07:09:45 PM 34.8883 -80.3067 63° Northeast 458 527 33,000  Level Washington Center
Sun 07:10:46 PM 34.9525 -80.1583 62° Northeast 470 541 33,000  Level Washington Center
Sun 07:11:46 PM 35.0231 -80.0000 61° Northeast 486 559 33,000  Level Washington Center
Sun 07:12:47 PM 35.0911 -79.8539 60° Northeast 486 559 33,000  Level Washington Center
Sun 07:13:45 PM 35.1731 -79.7186 53° Northeast 486 559 33,000  Level Washington Center
Sun 07:14:46 PM 35.2547 -79.5853 53° Northeast 492 566 33,000  Level Washington Center
Sun 07:15:46 PM 35.3406 -79.4547 51° Northeast 492 566 33,000  Level Washington Center
Sun 07:16:47 PM 35.4242 -79.3133 54° Northeast 502 578 33,000  Level Washington Center
Sun 07:17:45 PM 35.4956 -79.1689 59° Northeast 502 578 33,000  Level Washington Center
Sun 07:18:45 PM 35.5683 -79.0292 57° Northeast 488 562 33,000  Level Washington Center
Sun 07:19:46 PM 35.6433 -78.8867 57° Northeast 488 562 33,000  Level Washington Center
Sun 07:20:46 PM 35.7161 -78.7411 58° Northeast 488 562 33,000  Level Washington Center
Sun 07:21:45 PM 35.7928 -78.5983 56° Northeast 493 567 33,000  Level Washington Center
Sun 07:22:46 PM 35.8672 -78.4575 57° Northeast 493 567 33,000  Level Washington Center
Sun 07:23:47 PM 35.9458 -78.3142 56° Northeast 493 567 33,000  Level Washington Center
Sun 07:24:47 PM 36.0319 -78.1861 50° Northeast 493 567 33,000  Level Washington Center
Sun 07:25:45 PM 36.1117 -78.0706 49° Northeast 493 567 33,000  Level Washington Center
Sun 07:26:45 PM 36.2019 -77.9447 48° Northeast 493 567 33,000  Level Washington Center
Sun 07:27:46 PM 36.2919 -77.8133 50° Northeast 488 562 33,000  Level Washington Center
Sun 07:28:47 PM 36.3861 -77.6869 47° Northeast 493 567 33,000  Level Washington Center
Sun 07:29:45 PM 36.4822 -77.5500 49° Northeast 488 562 33,000  Level Washington Center
Sun 07:30:46 PM 36.5803 -77.4233 46° Northeast 488 562 33,000  Level Washington Center
Sun 07:31:47 PM 36.6758 -77.3011 46° Northeast 488 562 33,000  Level Washington Center
Sun 07:32:47 PM 36.7736 -77.1761 46° Northeast 493 567 33,000  Level Washington Center
Sun 07:33:47 PM 36.8650 -77.0536 47° Northeast 488 562 33,000  Level Washington Center
Sun 07:34:45 PM 36.9517 -76.9408 46° Northeast 488 562 33,000  Level Washington Center
Sun 07:35:46 PM 37.0447 -76.8150 47° Northeast 488 562 33,000  Level Washington Center
Sun 07:36:47 PM 37.1378 -76.6914 47° Northeast 488 562 33,000  Level Washington Center
Sun 07:37:47 PM 37.2328 -76.5675 46° Northeast 488 562 33,000  Level Washington Center
Sun 07:38:47 PM 37.3275 -76.4433 46° Northeast 488 562 33,000  Level Washington Center
Sun 07:39:45 PM 37.4222 -76.3161 47° Northeast 493 567 33,000  Level Washington Center
Sun 07:40:46 PM 37.5147 -76.1914 47° Northeast 488 562 33,000  Level Washington Center
Sun 07:41:47 PM 37.6153 -76.0689 44° Northeast 488 562 33,000  Level Washington Center
Sun 07:42:45 PM 37.7097 -75.9383 48° Northeast 493 567 33,000  Level Washington Center
Sun 07:43:45 PM 37.8058 -75.8072 47° Northeast 498 573 33,000  Level Washington Center
Sun 07:44:46 PM 37.9019 -75.6786 47° Northeast 503 579 33,000  Level Washington Center
Sun 07:45:47 PM 37.9981 -75.5497 47° Northeast 503 579 33,000  Level Washington Center
Sun 07:46:47 PM 38.1042 -75.4414 39° Northeast 497 572 33,000  Level Washington Center
Sun 07:47:47 PM 38.2272 -75.3697 25° Northeast 484 557 33,000  Level Washington Center
Sun 07:48:45 PM 38.3561 -75.2792 29° Northeast 484 557 33,000  Level Washington Center
Sun 07:49:45 PM 38.4811 -75.2044 25° Northeast 484 557 33,000  Level Washington Center
Sun 07:50:46 PM 38.6017 -75.1347 24° Northeast 479 551 33,000  Level Washington Center
Sun 07:51:47 PM 38.7203 -75.0542 28° Northeast 479 551 33,000 -298 Level Washington Center
Sun 07:52:47 PM 38.8408 -74.9733 28° Northeast 479 551 32,400 -1,729 Descending Washington Center
Sun 07:53:45 PM 38.9633 -74.8947 27° Northeast 479 551 29,600 -2,695 Descending Washington Center
Sun 07:54:45 PM 39.0839 -74.8214 25° Northeast 479 551 27,100 -2,400 Descending Washington Center
Sun 07:55:45 PM 39.1933 -74.7106 38° Northeast 484 557 24,800 -2,494 Descending Washington Center
Sun 07:57:43 PM 39.3856 -74.4992 40° Northeast 484 557 19,700 -2,090 Descending New York Center
Sun 07:58:43 PM 39.4828 -74.3886 41° Northeast 471 542 18,600 -843 Descending New York Center
Sun 07:59:44 PM 39.5647 -74.2986 40° Northeast 449 517 18,000 -1,017 Descending New York Center
Sun 08:00:41 PM 39.6703 -74.1825 40° Northeast 444 511 16,600 -1,846 Descending New York Center
Sun 08:01:41 PM 39.7564 -74.0867 41° Northeast 427 491 14,400 -2,281 Descending New York Center
Sun 08:02:42 PM 39.8425 -73.9936 40° Northeast 406 467 12,000 -1,686 Descending New York Center
Sun 08:03:42 PM 39.9231 -73.9378 28° Northeast 380 437 11,000 -496 Descending New York Center
Sun 08:04:43 PM 40.0017 -73.8817 29° Northeast 335 386 11,000  Level New York Center
Sun 08:05:41 PM 40.0728 -73.8008 41° Northeast 304 350 11,000 -457 Level New York Center
Sun 08:06:28 PM 40.1333 -73.7667 23° Northeast 300 345 10,200 -1,458 Descending New York TRACON
Sun 08:07:28 PM 40.2000 -73.8000 339° North 275 316 8,400 -1,100 Descending New York TRACON
Sun 08:08:28 PM 40.2667 -73.8667 323° Northwest 276 318 8,000 -1,200 Descending New York TRACON
Sun 08:09:28 PM 40.3167 -73.9333 315° West 267 307 6,000 -2,000 Descending New York TRACON
Sun 08:09:43 PM 40.3250 -73.9481 307° West 264 304 5,500 -1,895 Descending New York Center
Sun 08:10:44 PM 40.3481 -74.0253 291° West 256 295 3,600 -1,429 Descending New York Center
Sun 08:11:28 PM 40.4000 -74.0500 340° North 238 274 3,000 -346 Descending New York TRACON
Sun 08:12:28 PM 40.4500 -74.0167 27° Northeast 195 224 3,000  Level New York TRACON
Sun 08:13:28 PM 40.5000 -73.9833 27° Northeast 196 226 3,000 -100 Level New York TRACON
Sun 08:14:28 PM 40.5500 -73.9500 27° Northeast 198 228 2,800 -500 Descending New York TRACON
Sun 08:15:28 PM 40.5833 -73.9167 37° Northeast 168 193 2,000 -750 Descending New York TRACON
Sun 08:16:28 PM 40.6167 -73.8833 37° Northeast 156 180 1,300 -595 Descending New York TRACON
Sun 08:17:29 PM 40.6667 -73.8500 27° Northeast 156 180 800 -492 Descending New York TRACON
Sun 08:19:00 PM 40.6398 -73.7789 North  Level Estimated
Sun 08:26:00 PM 40.6398 -73.7789 North  Level Estimated
Sun 08:27:00 PM 40.6398 -73.7789 North  Level Estimated

Login

Don't have an account? Register now (free) for customized features, flight alerts, and more!